Time;durP1;ratioP1;P1;durP2;ratioP2;P2;SDS_P1;SDS_P2;PMS_P1;PMS_P2;Temp;Humidity;BMP_temperature;BMP_pressure;BME280_temperature;BME280_humidity;BME280_pressure;Samples;Min_cycle;Max_cycle;Signal;HPM_P1;HPM_P2
2022/07/26 00:01:52;;;;;;;13.82;3.08;;;19.80;99.90;;;;;;5094711;28;20047;-67
2022/07/26 00:04:18;;;;;;;15.52;3.05;;;19.80;99.90;;;;;;5093448;28;20079;-67
2022/07/26 00:06:43;;;;;;;16.73;3.40;;;19.80;99.90;;;;;;5091462;28;20035;-67
2022/07/26 00:09:09;;;;;;;9.30;2.38;;;19.80;99.90;;;;;;5091779;28;20444;-67
2022/07/26 00:11:35;;;;;;;14.02;3.53;;;19.90;99.90;;;;;;5090701;28;20074;-67
2022/07/26 00:14:03;;;;;;;15.40;3.00;;;19.90;99.90;;;;;;5090933;28;20385;-67
2022/07/26 00:16:29;;;;;;;16.63;2.67;;;19.90;99.90;;;;;;5091397;28;20054;-67
2022/07/26 00:18:55;;;;;;;20.30;3.08;;;19.90;99.90;;;;;;5090169;28;20040;-66
2022/07/26 00:21:21;;;;;;;13.93;2.72;;;19.80;99.90;;;;;;5091103;28;20044;-67
2022/07/26 00:23:46;;;;;;;14.07;3.15;;;19.80;99.90;;;;;;5090996;28;20046;-67
2022/07/26 00:26:12;;;;;;;15.02;3.28;;;19.90;99.90;;;;;;5089804;28;20127;-67
2022/07/26 00:28:40;;;;;;;15.90;3.47;;;19.80;99.90;;;;;;5091332;28;20507;-66
2022/07/26 00:31:05;;;;;;;17.10;3.30;;;19.80;99.90;;;;;;5091209;28;20040;-67
2022/07/26 00:33:31;;;;;;;13.07;2.88;;;19.80;99.90;;;;;;5090852;28;20138;-67
2022/07/26 00:35:56;;;;;;;19.85;3.53;;;19.80;99.90;;;;;;5091316;28;20040;-67
2022/07/26 00:38:22;;;;;;;19.60;3.25;;;19.70;99.90;;;;;;5091217;28;20040;-67
2022/07/26 00:40:48;;;;;;;14.43;2.83;;;19.80;99.90;;;;;;5091128;28;20334;-67
2022/07/26 00:43:13;;;;;;;18.92;3.13;;;19.80;99.90;;;;;;5090861;28;20032;-66
2022/07/26 00:45:39;;;;;;;14.90;2.97;;;19.70;99.90;;;;;;5091169;28;20113;-67
2022/07/26 00:48:05;;;;;;;14.65;3.60;;;19.70;99.90;;;;;;5090868;28;20048;-67
2022/07/26 00:50:30;;;;;;;20.55;3.45;;;19.80;99.90;;;;;;5090312;28;20036;-67
2022/07/26 00:52:56;;;;;;;10.88;2.47;;;19.70;99.90;;;;;;5090672;28;20036;-67
2022/07/26 00:55:21;;;;;;;14.98;3.22;;;19.70;99.90;;;;;;5089369;28;20064;-66
2022/07/26 00:57:47;;;;;;;13.63;3.42;;;19.70;99.90;;;;;;5090719;28;20038;-67
2022/07/26 01:00:17;;;;;;;13.63;3.20;;;19.70;99.90;;;;;;5090703;28;20091;-67
2022/07/26 01:02:43;;;;;;;16.13;3.22;;;19.60;99.90;;;;;;5090244;28;20511;-67
2022/07/26 01:05:09;;;;;;;23.30;3.67;;;19.60;99.90;;;;;;5090615;28;20048;-67
2022/07/26 01:07:37;;;;;;;17.65;3.30;;;19.50;99.90;;;;;;5090550;28;20032;-67
2022/07/26 01:10:06;;;;;;;15.57;3.22;;;19.50;99.90;;;;;;5090563;28;20036;-67
2022/07/26 01:12:31;;;;;;;14.70;3.42;;;19.50;99.90;;;;;;5090309;28;20058;-67
2022/07/26 01:14:57;;;;;;;14.38;3.85;;;19.50;99.90;;;;;;5090752;28;20048;-67
2022/07/26 01:17:23;;;;;;;15.57;3.60;;;19.40;99.90;;;;;;5093020;28;20054;-67
2022/07/26 01:19:48;;;;;;;25.70;3.88;;;19.40;99.90;;;;;;5092661;28;20040;-67
2022/07/26 01:22:14;;;;;;;16.02;3.28;;;19.40;99.90;;;;;;5090242;28;20072;-66
2022/07/26 01:24:40;;;;;;;23.42;4.18;;;19.30;99.90;;;;;;5090362;28;20040;-67
2022/07/26 01:27:05;;;;;;;21.20;4.82;;;19.30;99.90;;;;;;5090358;28;20039;-67
2022/07/26 01:29:31;;;;;;;11.40;2.88;;;19.30;99.90;;;;;;5090320;28;20060;-67
2022/07/26 01:31:56;;;;;;;18.08;3.75;;;19.30;99.90;;;;;;5090089;28;20066;-67
2022/07/26 01:34:22;;;;;;;19.45;3.15;;;19.20;99.90;;;;;;5090130;28;20516;-67
2022/07/26 01:36:48;;;;;;;20.17;3.55;;;19.20;99.90;;;;;;5090139;28;20044;-67
2022/07/26 01:39:13;;;;;;;23.20;3.80;;;19.10;99.90;;;;;;5090519;28;20032;-67
2022/07/26 01:41:39;;;;;;;18.48;3.95;;;19.10;99.90;;;;;;5090013;28;20048;-67
2022/07/26 01:44:06;;;;;;;18.05;3.75;;;19.10;99.90;;;;;;5090036;28;20032;-67
2022/07/26 01:46:31;;;;;;;20.25;3.67;;;19.10;99.90;;;;;;5088989;28;20075;-67
2022/07/26 01:48:57;;;;;;;15.32;3.05;;;19.10;99.90;;;;;;5090044;28;20036;-67
2022/07/26 01:51:23;;;;;;;17.88;3.63;;;19.10;99.90;;;;;;5088893;28;20493;-67
2022/07/26 01:53:48;;;;;;;16.40;3.80;;;19.10;99.90;;;;;;5090183;28;20092;-67
2022/07/26 01:56:14;;;;;;;10.60;3.17;;;19.00;99.90;;;;;;5090217;28;20133;-67
2022/07/26 01:58:40;;;;;;;20.30;3.90;;;19.00;99.90;;;;;;5091175;28;20071;-67
2022/07/26 02:01:07;;;;;;;16.48;4.10;;;18.90;99.90;;;;;;5090045;28;20068;-67
2022/07/26 02:03:33;;;;;;;18.55;4.60;;;18.90;99.90;;;;;;5089417;28;20460;-67
2022/07/26 02:05:58;;;;;;;18.02;4.07;;;18.80;99.90;;;;;;5088807;28;20039;-67
2022/07/26 02:08:24;;;;;;;17.05;3.60;;;18.90;99.90;;;;;;5089982;28;20698;-67
2022/07/26 02:11:00;;;;;;;20.67;3.60;;;18.90;99.90;;;;;;5089907;28;20036;-67
2022/07/26 02:13:35;;;;;;;14.63;4.10;;;18.90;99.90;;;;;;5088103;28;20097;-67
2022/07/26 02:16:06;;;;;;;16.17;3.50;;;18.90;99.90;;;;;;5089743;28;20058;-67
2022/07/26 02:18:32;;;;;;;15.75;4.60;;;18.90;99.90;;;;;;5088601;28;20126;-67
2022/07/26 02:21:00;;;;;;;16.67;4.07;;;18.80;99.90;;;;;;5073566;28;20116;-67
2022/07/26 02:23:25;;;;;;;13.23;3.70;;;18.80;99.90;;;;;;5091954;28;20404;-67
2022/07/26 02:25:52;;;;;;;20.88;4.13;;;18.80;99.90;;;;;;5093737;28;20036;-66
2022/07/26 02:28:17;;;;;;;16.92;3.38;;;18.80;99.90;;;;;;5093624;28;20040;-67
2022/07/26 02:30:44;;;;;;;10.85;3.75;;;18.80;99.90;;;;;;5092437;28;20454;-67
2022/07/26 02:33:10;;;;;;;22.55;4.53;;;18.80;99.90;;;;;;5095269;28;20499;-67
2022/07/26 02:35:36;;;;;;;17.35;3.97;;;18.80;99.90;;;;;;5096052;28;20046;-67
2022/07/26 02:38:06;;;;;;;17.65;4.38;;;18.80;99.90;;;;;;5093676;28;20373;-67
2022/07/26 02:40:32;;;;;;;20.17;3.80;;;18.70;99.90;;;;;;5093316;28;20075;-67
2022/07/26 02:42:58;;;;;;;15.32;4.00;;;18.70;99.90;;;;;;5092919;28;20411;-67
2022/07/26 02:45:24;;;;;;;18.35;3.85;;;18.70;99.90;;;;;;5093123;28;20036;-67
2022/07/26 02:47:52;;;;;;;17.85;4.20;;;18.60;99.90;;;;;;5091856;28;20144;-67
2022/07/26 02:50:20;;;;;;;12.02;3.80;;;18.70;99.90;;;;;;5093159;28;20043;-67
2022/07/26 02:52:49;;;;;;;17.92;4.78;;;18.70;99.90;;;;;;5092937;28;20173;-67
2022/07/26 02:55:16;;;;;;;15.82;3.40;;;18.70;99.90;;;;;;5092868;28;20127;-67
2022/07/26 02:57:42;;;;;;;13.52;3.95;;;18.70;99.90;;;;;;5093041;28;20032;-67
2022/07/26 03:00:09;;;;;;;20.17;3.83;;;18.70;99.90;;;;;;5092945;28;20070;-67
2022/07/26 03:02:35;;;;;;;21.88;4.30;;;18.70;99.90;;;;;;5093162;28;20040;-67
2022/07/26 03:05:02;;;;;;;20.63;3.80;;;18.70;99.90;;;;;;5094936;28;20540;-67
2022/07/26 03:07:28;;;;;;;15.73;3.95;;;18.70;99.90;;;;;;5093342;28;20052;-67
2022/07/26 03:09:53;;;;;;;19.85;4.03;;;18.70;99.90;;;;;;5092605;28;20036;-67
2022/07/26 03:12:19;;;;;;;21.00;4.30;;;18.70;99.90;;;;;;5092566;28;20075;-67
2022/07/26 03:14:44;;;;;;;12.80;3.80;;;18.70;99.90;;;;;;5092591;28;20099;-67
2022/07/26 03:17:10;;;;;;;20.25;3.90;;;18.70;99.90;;;;;;5092612;28;20119;-67
2022/07/26 03:19:35;;;;;;;17.48;4.70;;;18.70;99.90;;;;;;5092594;28;20047;-67
2022/07/26 03:22:01;;;;;;;18.10;4.38;;;18.60;99.90;;;;;;5092365;28;20434;-67
2022/07/26 03:24:26;;;;;;;18.95;3.92;;;18.70;99.90;;;;;;5092286;28;20514;-67
2022/07/26 03:26:52;;;;;;;13.13;4.45;;;18.60;99.90;;;;;;5092580;28;20036;-67
2022/07/26 03:29:18;;;;;;;14.25;4.07;;;18.60;99.90;;;;;;5092690;28;20040;-67
2022/07/26 03:31:43;;;;;;;16.35;4.38;;;18.70;99.90;;;;;;5091869;28;20093;-67
2022/07/26 03:34:09;;;;;;;19.92;4.90;;;18.70;99.90;;;;;;5092123;28;20044;-67
2022/07/26 03:36:34;;;;;;;13.07;4.38;;;18.70;99.90;;;;;;5092373;28;20044;-67
2022/07/26 03:39:00;;;;;;;17.67;4.05;;;18.70;99.90;;;;;;5092178;28;20051;-67
2022/07/26 03:41:25;;;;;;;15.45;4.10;;;18.70;99.90;;;;;;5091924;28;20177;-67
2022/07/26 03:43:51;;;;;;;14.13;3.95;;;18.70;99.90;;;;;;5091967;28;20372;-66
2022/07/26 03:46:16;;;;;;;16.95;4.47;;;18.70;99.90;;;;;;5091100;28;20526;-66
2022/07/26 03:48:42;;;;;;;18.35;4.20;;;18.70;99.90;;;;;;5088731;28;20115;-67
2022/07/26 03:51:08;;;;;;;15.30;4.28;;;18.70;99.90;;;;;;5091924;28;20569;-67
2022/07/26 03:53:33;;;;;;;14.25;3.72;;;18.70;99.90;;;;;;5090961;28;20043;-66
2022/07/26 03:58:43;;;;;;;16.02;4.30;;;18.70;99.90;;;;;;5091019;28;20050;-67
2022/07/26 04:01:09;;;;;;;13.55;3.88;;;18.70;99.90;;;;;;5091246;28;20048;-67
2022/07/26 04:03:35;;;;;;;15.55;4.00;;;18.80;99.90;;;;;;5089599;28;20465;-67
2022/07/26 04:06:01;;;;;;;24.80;5.50;;;18.80;99.90;;;;;;5091890;28;20044;-68
2022/07/26 04:08:27;;;;;;;13.43;3.28;;;18.70;99.90;;;;;;5092199;28;20048;-68
2022/07/26 04:10:52;;;;;;;17.77;3.92;;;18.70;99.90;;;;;;5091627;28;20036;-68
2022/07/26 04:13:19;;;;;;;9.93;3.30;;;18.70;99.90;;;;;;5089952;28;20482;-69
2022/07/26 04:15:45;;;;;;;10.55;3.05;;;18.50;99.90;;;;;;5091080;28;20052;-68
2022/07/26 04:18:12;;;;;;;11.63;3.25;;;18.60;99.90;;;;;;5091310;28;20043;-68
2022/07/26 04:20:38;;;;;;;10.98;3.08;;;18.60;99.90;;;;;;5088988;28;20531;-68
2022/07/26 04:23:04;;;;;;;6.55;2.63;;;18.50;99.90;;;;;;5089961;28;20040;-68
2022/07/26 04:25:29;;;;;;;5.50;2.40;;;18.50;99.90;;;;;;5089035;28;20051;-68
2022/07/26 04:27:55;;;;;;;11.48;2.83;;;18.50;99.90;;;;;;5090388;28;20055;-68
2022/07/26 04:30:20;;;;;;;8.50;2.50;;;18.50;99.90;;;;;;5091414;28;20042;-68
2022/07/26 04:32:46;;;;;;;10.77;3.30;;;18.50;99.90;;;;;;5091078;28;20036;-68
2022/07/26 04:35:12;;;;;;;7.57;2.38;;;18.40;99.90;;;;;;5091541;28;20040;-67
2022/07/26 04:37:39;;;;;;;5.18;2.45;;;18.40;99.90;;;;;;5091442;28;20040;-67
2022/07/26 04:40:06;;;;;;;6.10;2.38;;;18.40;99.90;;;;;;5091457;28;20075;-66
2022/07/26 04:42:31;;;;;;;8.20;2.63;;;18.40;99.90;;;;;;5090266;28;20044;-66
2022/07/26 04:44:57;;;;;;;8.57;2.50;;;18.40;99.90;;;;;;5089798;28;20051;-67
2022/07/26 04:47:22;;;;;;;8.32;2.30;;;18.40;99.90;;;;;;5090013;28;20054;-67
2022/07/26 04:49:48;;;;;;;5.55;2.25;;;18.40;99.90;;;;;;5091305;28;20086;-67
2022/07/26 04:52:13;;;;;;;12.45;2.53;;;18.40;99.90;;;;;;5091136;28;20086;-67
2022/07/26 04:54:39;;;;;;;6.68;2.55;;;18.40;99.90;;;;;;5089825;28;20051;-67
2022/07/26 04:57:04;;;;;;;4.65;2.30;;;18.40;99.90;;;;;;5090355;28;20129;-66
2022/07/26 04:59:30;;;;;;;6.60;2.40;;;18.40;99.90;;;;;;5091260;28;20496;-67
2022/07/26 05:01:56;;;;;;;6.70;2.10;;;18.40;99.90;;;;;;5089900;28;20036;-66
2022/07/26 05:04:21;;;;;;;6.20;2.42;;;18.40;99.90;;;;;;5090817;28;20036;-67
2022/07/26 05:06:47;;;;;;;6.57;2.03;;;18.40;99.90;;;;;;5091330;28;20504;-66
2022/07/26 05:09:12;;;;;;;6.70;2.17;;;18.40;99.90;;;;;;5089824;28;20044;-66
2022/07/26 05:11:38;;;;;;;5.10;2.08;;;18.40;99.90;;;;;;5090795;28;20044;-66
2022/07/26 05:14:03;;;;;;;8.30;2.45;;;18.40;99.90;;;;;;5088990;28;20044;-67
2022/07/26 05:16:29;;;;;;;7.07;1.98;;;18.40;99.90;;;;;;5089763;28;20051;-67
2022/07/26 05:18:54;;;;;;;8.88;2.30;;;18.50;99.90;;;;;;5089732;28;20052;-67
2022/07/26 05:21:20;;;;;;;4.78;2.20;;;18.50;99.90;;;;;;5089479;28;20040;-67
2022/07/26 05:23:46;;;;;;;6.75;2.70;;;18.50;99.90;;;;;;5089075;28;20067;-67
2022/07/26 05:26:11;;;;;;;4.10;2.20;;;18.60;99.90;;;;;;5090502;28;20040;-67
2022/07/26 05:28:40;;;;;;;8.27;2.25;;;18.60;99.90;;;;;;5089354;28;20131;-67
2022/07/26 05:31:06;;;;;;;8.98;2.47;;;18.60;99.90;;;;;;5090638;28;20028;-67
2022/07/26 05:33:31;;;;;;;7.55;1.88;;;18.50;99.90;;;;;;5088996;28;20407;-68
2022/07/26 05:35:57;;;;;;;10.85;1.88;;;18.60;99.90;;;;;;5090609;28;20040;-68
2022/07/26 05:38:24;;;;;;;6.85;1.70;;;18.60;99.90;;;;;;5089448;28;20067;-68
2022/07/26 05:40:50;;;;;;;4.60;1.65;;;18.60;99.90;;;;;;5089110;28;20079;-68
2022/07/26 05:43:15;;;;;;;9.35;2.42;;;18.50;99.90;;;;;;5088921;28;20468;-68
2022/07/26 05:45:41;;;;;;;5.72;1.90;;;18.50;99.90;;;;;;5072584;28;20097;-68
2022/07/26 05:48:07;;;;;;;5.43;1.70;;;18.50;99.90;;;;;;5090654;28;20042;-67
2022/07/26 05:50:32;;;;;;;6.80;2.00;;;18.50;99.90;;;;;;5090380;28;20446;-68
2022/07/26 05:52:58;;;;;;;6.82;1.48;;;18.50;99.90;;;;;;5090195;28;20044;-67
2022/07/26 05:55:23;;;;;;;13.23;2.40;;;18.50;99.90;;;;;;5093324;28;20526;-67
2022/07/26 05:57:49;;;;;;;5.32;1.70;;;18.50;99.90;;;;;;5094772;28;20075;-67
2022/07/26 06:00:15;;;;;;;7.30;1.55;;;18.50;99.90;;;;;;5094679;28;20128;-67
2022/07/26 06:02:40;;;;;;;5.80;1.70;;;18.50;99.90;;;;;;5094275;28;20519;-67
2022/07/26 06:05:06;;;;;;;3.55;1.63;;;18.50;99.90;;;;;;5094486;28;20043;-67
2022/07/26 06:07:32;;;;;;;8.90;1.60;;;18.50;99.90;;;;;;5094369;28;20040;-67
2022/07/26 06:09:58;;;;;;;3.10;1.63;;;18.60;99.90;;;;;;5094193;28;20522;-67
2022/07/26 06:12:23;;;;;;;7.07;1.60;;;18.60;99.90;;;;;;5094146;28;20063;-67
2022/07/26 06:14:49;;;;;;;3.35;1.48;;;18.60;99.90;;;;;;5094391;28;20101;-67
2022/07/26 06:17:14;;;;;;;5.47;1.15;;;18.50;99.90;;;;;;5094253;28;20141;-68
2022/07/26 06:19:40;;;;;;;3.45;1.40;;;18.60;99.90;;;;;;5092889;28;20040;-67
2022/07/26 06:22:06;;;;;;;7.57;2.63;;;18.50;99.90;;;;;;5094034;28;20047;-67
2022/07/26 06:24:31;;;;;;;7.60;1.00;;;18.60;99.90;;;;;;5095088;28;20032;-67
2022/07/26 06:26:57;;;;;;;4.38;1.35;;;18.50;99.90;;;;;;5096152;28;20439;-67
2022/07/26 06:29:23;;;;;;;3.70;1.50;;;18.50;99.90;;;;;;5096760;28;20067;-67
2022/07/26 06:31:49;;;;;;;7.43;1.52;;;18.50;99.90;;;;;;5097282;28;20097;-67
2022/07/26 06:34:15;;;;;;;9.10;1.42;;;18.50;99.90;;;;;;5092106;28;20040;-67
2022/07/26 06:36:41;;;;;;;7.03;1.80;;;18.50;99.90;;;;;;5093982;28;20121;-67
2022/07/26 06:39:06;;;;;;;8.48;1.45;;;18.50;99.90;;;;;;5092314;28;20036;-67
2022/07/26 06:41:32;;;;;;;10.02;1.70;;;18.50;99.90;;;;;;5093759;28;20074;-67
2022/07/26 06:43:57;;;;;;;5.88;1.30;;;18.50;99.90;;;;;;5093519;28;20463;-67
2022/07/26 06:46:23;;;;;;;6.82;1.35;;;18.50;99.90;;;;;;5093626;28;20066;-67
2022/07/26 06:48:49;;;;;;;4.18;1.20;;;18.50;99.90;;;;;;5092058;28;20040;-67
2022/07/26 06:51:15;;;;;;;4.22;1.05;;;18.50;99.90;;;;;;5093468;28;20071;-67
2022/07/26 06:53:40;;;;;;;3.03;1.13;;;18.40;99.90;;;;;;5093119;28;20040;-67
2022/07/26 06:56:06;;;;;;;4.63;1.20;;;18.40;99.90;;;;;;5093444;28;20110;-68
2022/07/26 06:58:32;;;;;;;5.15;1.05;;;18.40;99.90;;;;;;5093634;28;20101;-71
2022/07/26 07:00:58;;;;;;;5.93;1.00;;;18.40;99.90;;;;;;5093185;28;20051;-70
2022/07/26 07:03:24;;;;;;;4.63;1.27;;;18.50;99.90;;;;;;5092998;28;20074;-69
2022/07/26 07:05:50;;;;;;;5.55;1.05;;;18.50;99.90;;;;;;5092362;28;20496;-70
2022/07/26 07:08:16;;;;;;;6.30;1.48;;;18.50;99.90;;;;;;5093242;28;20039;-70
2022/07/26 07:10:42;;;;;;;7.38;1.10;;;18.60;99.90;;;;;;5093251;28;20048;-71
2022/07/26 07:13:07;;;;;;;3.53;1.23;;;18.70;99.90;;;;;;5093359;28;20043;-71
2022/07/26 07:15:33;;;;;;;6.85;1.10;;;18.70;99.90;;;;;;5094298;28;20040;-71
2022/07/26 07:17:59;;;;;;;9.15;1.25;;;18.70;99.90;;;;;;5092930;28;20856;-72
2022/07/26 07:20:25;;;;;;;3.55;1.30;;;18.60;99.90;;;;;;5092566;28;20040;-71
2022/07/26 07:22:51;;;;;;;6.00;1.08;;;18.60;99.90;;;;;;5092734;28;20044;-71
2022/07/26 07:25:16;;;;;;;4.70;1.30;;;18.60;99.90;;;;;;5093116;28;20142;-71
2022/07/26 07:27:42;;;;;;;8.63;1.27;;;18.60;99.90;;;;;;5092960;28;20555;-72
2022/07/26 07:30:09;;;;;;;4.85;1.15;;;18.50;99.90;;;;;;5093042;28;20040;-71
2022/07/26 07:32:35;;;;;;;4.65;1.23;;;18.50;99.90;;;;;;5092224;28;20731;-72
2022/07/26 07:35:01;;;;;;;4.13;1.20;;;18.40;99.90;;;;;;5091772;28;20044;-71
2022/07/26 07:37:26;;;;;;;4.80;1.10;;;18.40;99.90;;;;;;5099801;28;20040;-72
2022/07/26 07:39:52;;;;;;;5.20;1.25;;;18.50;99.90;;;;;;5101861;28;20453;-72
2022/07/26 07:42:18;;;;;;;5.78;1.17;;;18.50;99.90;;;;;;5103161;28;20048;-72
2022/07/26 07:44:44;;;;;;;2.85;1.08;;;18.50;99.90;;;;;;5101251;28;20036;-72
2022/07/26 07:47:09;;;;;;;5.85;1.08;;;18.50;99.90;;;;;;5092584;28;20423;-72
2022/07/26 07:49:35;;;;;;;2.60;0.85;;;18.60;99.90;;;;;;5091034;28;20039;-72
2022/07/26 07:52:01;;;;;;;5.93;1.20;;;18.70;99.90;;;;;;5091513;28;20048;-72
2022/07/26 07:54:26;;;;;;;7.15;1.00;;;18.70;99.90;;;;;;5090873;28;20423;-73
2022/07/26 07:56:55;;;;;;;5.70;1.15;;;18.80;99.90;;;;;;5092553;28;20107;-72
2022/07/26 07:59:21;;;;;;;5.47;1.30;;;18.70;99.90;;;;;;5092500;28;20036;-72
2022/07/26 08:01:47;;;;;;;4.28;1.33;;;18.60;99.90;;;;;;5090730;28;20040;-72
2022/07/26 08:04:12;;;;;;;2.67;1.27;;;18.60;99.90;;;;;;5090908;28;20100;-73
2022/07/26 08:06:38;;;;;;;4.38;0.88;;;18.60;99.90;;;;;;5092550;28;20136;-72
2022/07/26 08:09:03;;;;;;;4.63;1.20;;;18.30;99.90;;;;;;5090535;28;20040;-73
2022/07/26 08:11:29;;;;;;;6.47;1.00;;;18.40;99.90;;;;;;5090955;28;20074;-73
2022/07/26 08:13:55;;;;;;;4.63;1.10;;;18.30;99.90;;;;;;5091804;28;20074;-74
2022/07/26 08:16:20;;;;;;;3.30;1.15;;;18.00;99.90;;;;;;5090970;28;20047;-74
2022/07/26 08:18:46;;;;;;;7.00;1.05;;;18.00;99.90;;;;;;5090495;28;20036;-74
2022/07/26 08:21:11;;;;;;;3.95;1.17;;;18.10;99.90;;;;;;5090543;28;20036;-74
2022/07/26 08:23:37;;;;;;;4.90;1.00;;;18.00;99.90;;;;;;5091507;28;20044;-74
2022/07/26 08:26:02;;;;;;;6.15;0.90;;;17.80;99.90;;;;;;5091523;28;20043;-75
2022/07/26 08:28:28;;;;;;;8.00;1.40;;;17.70;99.90;;;;;;5073634;28;20124;-72
2022/07/26 08:30:54;;;;;;;11.18;1.30;;;17.80;99.90;;;;;;5091847;28;20040;-74
2022/07/26 08:33:19;;;;;;;6.78;1.10;;;17.90;99.90;;;;;;5091867;28;20046;-75
2022/07/26 08:35:45;;;;;;;7.35;1.05;;;18.00;99.90;;;;;;5090557;28;20044;-71
2022/07/26 08:38:10;;;;;;;7.53;1.40;;;18.10;99.90;;;;;;5092044;28;20663;-75
2022/07/26 08:40:36;;;;;;;6.93;1.10;;;18.30;99.90;;;;;;5090360;28;20093;-75
2022/07/26 08:43:02;;;;;;;1.55;0.68;;;18.30;99.90;;;;;;5091596;28;20112;-76
2022/07/26 08:45:30;;;;;;;6.68;1.10;;;18.60;99.90;;;;;;5095727;28;20036;-71
2022/07/26 08:47:59;;;;;;;6.18;1.10;;;18.70;99.90;;;;;;5084443;28;20043;-71
2022/07/26 08:50:26;;;;;;;9.93;1.38;;;18.80;99.90;;;;;;5090366;28;20040;-71
2022/07/26 08:52:59;;;;;;;3.30;0.95;;;18.80;99.90;;;;;;5090949;28;20451;-72
2022/07/26 08:55:25;;;;;;;7.10;1.10;;;18.80;99.90;;;;;;5089316;28;20547;-71
2022/07/26 08:57:50;;;;;;;4.45;1.20;;;18.90;99.90;;;;;;5090212;28;20182;-71
2022/07/26 09:00:25;;;;;;;5.07;1.00;;;19.10;99.90;;;;;;5089408;28;20506;-71
2022/07/26 09:02:52;;;;;;;4.93;1.20;;;19.10;99.90;;;;;;5090583;28;20488;-71
2022/07/26 09:05:24;;;;;;;4.70;1.20;;;19.10;99.90;;;;;;5091626;28;20078;-71
2022/07/26 09:07:50;;;;;;;;;;;19.00;99.90;;;;;;5091423;28;20096;-69
2022/07/26 09:10:15;;;;;;;7.20;1.25;;;19.20;99.90;;;;;;5090938;28;20011;-69
2022/07/26 09:12:42;;;;;;;1.45;0.90;;;19.30;99.90;;;;;;5089041;28;20048;-69
2022/07/26 09:15:18;;;;;;;8.20;1.23;;;19.40;99.90;;;;;;5089337;28;20056;-69
2022/07/26 09:17:47;;;;;;;6.70;1.30;;;19.40;99.90;;;;;;5089244;28;20071;-69
2022/07/26 09:20:26;;;;;;;8.63;1.70;;;19.40;99.90;;;;;;5089196;28;20044;-69
2022/07/26 09:23:05;;;;;;;2.80;1.00;;;19.50;99.90;;;;;;5090560;28;20040;-69
2022/07/26 09:25:32;;;;;;;4.63;1.30;;;19.50;99.90;;;;;;5089210;28;20097;-69
2022/07/26 09:27:58;;;;;;;6.65;1.35;;;19.40;99.90;;;;;;5089258;28;20044;-69
2022/07/26 09:30:25;;;;;;;7.47;1.42;;;19.30;99.90;;;;;;5090223;28;20048;-69
2022/07/26 09:33:00;;;;;;;4.97;1.08;;;18.90;99.90;;;;;;5090343;28;20051;-69
2022/07/26 09:35:27;;;;;;;3.28;0.95;;;18.80;99.90;;;;;;5089512;28;20052;-70
2022/07/26 09:37:52;;;;;;;7.57;1.30;;;18.80;99.90;;;;;;5077084;28;20044;-70
2022/07/26 09:40:18;;;;;;;6.00;1.27;;;18.70;99.90;;;;;;5052249;28;20732;-69
2022/07/26 09:42:59;;;;;;;3.38;0.90;;;19.00;99.90;;;;;;5051870;28;20048;-69
2022/07/26 09:45:26;;;;;;;4.05;1.35;;;19.00;99.90;;;;;;5070091;28;20425;-69
2022/07/26 09:47:52;;;;;;;4.20;1.30;;;19.20;99.90;;;;;;5070250;28;20040;-70
2022/07/26 09:50:20;;;;;;;4.40;1.10;;;19.10;99.90;;;;;;5070211;28;20048;-69
2022/07/26 09:53:08;;;;;;;9.25;1.30;;;19.20;99.90;;;;;;5071116;28;20045;-70
2022/07/26 09:55:55;;;;;;;4.15;1.30;;;19.10;99.90;;;;;;5075016;28;20047;-69
2022/07/26 09:58:22;;;;;;;4.10;1.20;;;18.90;99.90;;;;;;5070713;28;20322;-69
2022/07/26 10:00:48;;;;;;;6.78;1.52;;;19.20;99.90;;;;;;5070213;28;20098;-68
2022/07/26 10:03:14;;;;;;;9.13;1.50;;;19.30;99.90;;;;;;5069838;28;20048;-69
2022/07/26 10:05:40;;;;;;;3.85;1.10;;;19.40;99.90;;;;;;5070123;28;20404;-69
2022/07/26 10:08:07;;;;;;;7.07;1.25;;;19.50;99.90;;;;;;5070040;28;20029;-69
2022/07/26 10:10:41;;;;;;;5.07;1.67;;;19.40;99.90;;;;;;5068898;28;20070;-69
2022/07/26 10:13:07;;;;;;;11.40;1.52;;;19.60;99.90;;;;;;5069983;28;20047;-72
2022/07/26 10:15:33;;;;;;;7.03;1.20;;;19.80;99.90;;;;;;5069452;28;20095;-77
2022/07/26 10:17:59;;;;;;;7.68;1.45;;;19.70;99.90;;;;;;5069483;28;20072;-77
2022/07/26 10:20:39;;;;;;;6.22;1.25;;;19.90;99.90;;;;;;5058874;28;20144;-74
2022/07/26 10:23:36;;;;;;;5.25;1.77;;;20.00;99.90;;;;;;5072014;28;20052;-77
2022/07/26 10:26:03;;;;;;;4.75;1.17;;;20.20;99.90;;;;;;5069292;28;20102;-77
2022/07/26 10:28:31;;;;;;;2.78;1.10;;;20.40;99.90;;;;;;5052223;28;20128;-77
2022/07/26 10:31:18;;;;;;;3.65;1.20;;;20.40;99.90;;;;;;5070070;28;20040;-74
2022/07/26 10:33:47;;;;;;;5.10;1.15;;;20.30;99.90;;;;;;5068406;28;20036;-75
2022/07/26 10:36:27;;;;;;;4.28;1.35;;;20.30;99.90;;;;;;5051925;28;20040;-73
2022/07/26 10:39:17;;;;;;;6.43;1.33;;;20.40;99.90;;;;;;5068884;28;20463;-75
2022/07/26 10:41:55;;;;;;;6.63;1.75;;;20.30;99.90;;;;;;5052876;28;20110;-74
2022/07/26 10:44:25;;;;;;;5.15;1.35;;;20.00;99.90;;;;;;5073214;28;20400;-73
2022/07/26 10:47:07;;;;;;;6.32;1.58;;;19.90;99.90;;;;;;5055360;28;20040;-75
2022/07/26 10:49:38;;;;;;;13.00;1.98;;;19.60;99.90;;;;;;5056139;28;20113;-74
2022/07/26 10:52:12;;;;;;;6.95;1.73;;;19.40;99.90;;;;;;5072711;28;20038;-73
2022/07/26 10:54:56;;;;;;;7.82;1.80;;;19.30;99.90;;;;;;5071893;28;20087;-74
2022/07/26 10:57:39;;;;;;;7.80;1.65;;;19.30;99.90;;;;;;5072275;28;20050;-73
2022/07/26 11:00:15;;;;;;;7.72;1.80;;;19.30;99.90;;;;;;5072460;28;20101;-74
2022/07/26 11:02:42;;;;;;;5.55;1.27;;;19.40;99.90;;;;;;5086875;28;20040;-73
2022/07/26 11:05:14;;;;;;;7.13;1.60;;;19.60;99.90;;;;;;5086138;28;20521;-74
2022/07/26 11:07:56;;;;;;;11.50;1.70;;;19.60;99.90;;;;;;5071881;28;20048;-73
2022/07/26 11:10:43;;;;;;;11.68;1.65;;;19.60;99.90;;;;;;5054904;28;20086;-73
2022/07/26 11:13:18;;;;;;;9.65;1.55;;;19.60;99.90;;;;;;5054546;28;20519;-75
2022/07/26 11:15:50;;;;;;;5.35;1.70;;;19.60;99.90;;;;;;5055316;28;20040;-74
2022/07/26 11:18:20;;;;;;;14.60;2.40;;;19.70;99.90;;;;;;5071727;28;20040;-75
2022/07/26 11:20:50;;;;;;;9.95;2.10;;;19.40;99.90;;;;;;5072646;28;20113;-75
2022/07/26 11:23:35;;;;;;;10.85;2.00;;;19.20;99.90;;;;;;5054650;28;20044;-73
2022/07/26 11:26:05;;;;;;;10.13;2.15;;;19.10;99.90;;;;;;5071592;28;20028;-71
2022/07/26 11:28:52;;;;;;;12.27;2.38;;;19.00;99.90;;;;;;5071495;28;20036;-76
2022/07/26 11:31:20;;;;;;;6.88;1.75;;;18.90;99.90;;;;;;5055297;28;20135;-75
2022/07/26 11:33:49;;;;;;;25.88;3.03;;;18.90;99.90;;;;;;5071195;28;20424;-71
2022/07/26 11:36:17;;;;;;;52.70;3.70;;;19.00;99.90;;;;;;5071282;28;20070;-71
2022/07/26 11:38:47;;;;;;;71.32;4.90;;;18.80;99.90;;;;;;5073054;28;20083;-70
2022/07/26 11:41:14;;;;;;;12.25;2.30;;;18.70;99.90;;;;;;5073254;28;20043;-69
2022/07/26 11:43:40;;;;;;;24.70;2.83;;;18.80;99.90;;;;;;5070450;28;20044;-69
2022/07/26 11:46:06;;;;;;;10.20;2.15;;;18.90;99.90;;;;;;5070997;28;20484;-69
2022/07/26 11:48:32;;;;;;;12.05;2.63;;;19.10;99.90;;;;;;5072498;28;20087;-70
2022/07/26 11:51:19;;;;;;;8.75;1.90;;;19.10;99.90;;;;;;5072634;28;20048;-74
2022/07/26 11:53:45;;;;;;;13.18;2.22;;;19.30;99.90;;;;;;5070709;28;20060;-68
2022/07/26 11:56:22;;;;;;;13.02;1.98;;;19.50;99.90;;;;;;5072100;28;20079;-69
2022/07/26 11:58:49;;;;;;;13.75;2.45;;;19.60;99.90;;;;;;5072070;28;20102;-69
2022/07/26 12:01:18;;;;;;;12.50;2.33;;;19.50;99.90;;;;;;5072120;28;20042;-69
2022/07/26 12:03:49;;;;;;;10.25;2.40;;;19.50;99.90;;;;;;5053463;28;20176;-70
2022/07/26 12:06:17;;;;;;;12.52;2.15;;;19.60;99.90;;;;;;5070488;28;20044;-69
2022/07/26 12:08:49;;;;;;;11.57;2.38;;;19.80;99.90;;;;;;5070554;28;20048;-69
2022/07/26 12:11:16;;;;;;;16.40;2.50;;;19.60;99.90;;;;;;5083455;28;20037;-69
2022/07/26 12:14:00;;;;;;;9.23;1.80;;;19.70;99.90;;;;;;5074661;28;20396;-70
2022/07/26 12:16:46;;;;;;;10.90;2.05;;;19.90;99.90;;;;;;5070445;28;20047;-69
2022/07/26 12:19:18;;;;;;;7.65;2.17;;;19.60;99.90;;;;;;5071430;28;20080;-69
2022/07/26 12:21:46;;;;;;;14.48;1.70;;;19.70;99.90;;;;;;5071087;28;20044;-68
2022/07/26 12:24:33;;;;;;;8.95;1.77;;;19.80;99.90;;;;;;5069861;28;20047;-69
2022/07/26 12:27:10;;;;;;;11.30;2.05;;;19.90;99.90;;;;;;5071409;28;20098;-69
2022/07/26 12:29:40;;;;;;;8.10;2.00;;;19.90;99.90;;;;;;5069983;28;20132;-69
2022/07/26 12:32:14;;;;;;;11.88;2.20;;;19.90;99.90;;;;;;5071129;28;20072;-69
2022/07/26 12:34:54;;;;;;;11.82;2.17;;;20.00;99.90;;;;;;5069726;28;20044;-69
2022/07/26 12:37:19;;;;;;;8.90;1.83;;;19.90;99.90;;;;;;5071344;28;20075;-69
2022/07/26 12:40:08;;;;;;;11.93;1.73;;;20.10;99.90;;;;;;5071200;28;20087;-69
2022/07/26 12:42:49;;;;;;;6.90;1.50;;;20.10;99.90;;;;;;5069166;28;20128;-70
2022/07/26 12:45:18;;;;;;;6.40;1.97;;;20.20;99.90;;;;;;5070922;28;20119;-69
2022/07/26 12:47:46;;;;;;;9.43;1.77;;;20.30;99.90;;;;;;5069359;28;20534;-69
2022/07/26 12:50:13;;;;;;;6.43;1.70;;;20.30;99.90;;;;;;5070949;28;20161;-69